createdAt,value
2023-04-15T00:00:49.874Z,51.65
2023-04-15T00:03:18.063Z,60.80
2023-04-15T00:05:48.207Z,66.47
2023-04-15T00:08:15.660Z,62.97
2023-04-15T00:11:02.936Z,70.28
2023-04-15T00:13:30.658Z,59.05
2023-04-15T00:15:58.958Z,57.60
2023-04-15T00:18:27.312Z,60.47
2023-04-15T00:20:54.566Z,56.28
2023-04-15T00:23:21.669Z,57.53
2023-04-15T00:25:48.662Z,51.60
2023-04-15T00:28:15.694Z,61.53
2023-04-15T00:30:42.856Z,60.88
2023-04-15T00:33:10.835Z,58.63
2023-04-15T00:35:38.030Z,54.78
2023-04-15T00:38:06.134Z,55.67
2023-04-15T00:40:33.565Z,47.35
2023-04-15T00:43:00.723Z,47.00
2023-04-15T00:45:28.461Z,44.10
2023-04-15T00:47:56.152Z,43.95
2023-04-15T00:50:24.431Z,50.58
2023-04-15T00:52:52.102Z,55.08
2023-04-15T00:55:19.557Z,56.97
2023-04-15T00:57:46.866Z,51.35
2023-04-15T01:00:14.261Z,43.92
2023-04-15T01:02:41.644Z,49.53
2023-04-15T01:05:09.916Z,46.22
2023-04-15T01:07:38.180Z,39.95
2023-04-15T01:10:05.716Z,43.83
2023-04-15T01:12:33.441Z,38.08
2023-04-15T01:15:00.954Z,33.65
2023-04-15T01:17:28.628Z,32.88
2023-04-15T01:19:58.124Z,31.15
2023-04-15T01:22:26.917Z,37.80
2023-04-15T01:25:08.679Z,28.35
2023-04-15T01:27:36.521Z,31.85
2023-04-15T01:30:05.626Z,25.88
2023-04-15T01:32:32.701Z,28.45
2023-04-15T01:34:59.862Z,28.77
2023-04-15T01:37:27.754Z,28.88
2023-04-15T01:39:54.889Z,28.55
2023-04-15T01:42:22.721Z,28.00
2023-04-15T01:44:49.944Z,30.30
2023-04-15T01:47:17.262Z,29.25
2023-04-15T01:49:44.421Z,28.77
2023-04-15T01:52:11.557Z,29.35
2023-04-15T01:54:38.970Z,30.25
2023-04-15T01:57:06.565Z,31.02
2023-04-15T01:59:33.697Z,33.72
2023-04-15T02:02:01.578Z,32.22
2023-04-15T02:04:29.157Z,28.83
2023-04-15T02:06:57.214Z,20.50
2023-04-15T02:09:24.298Z,18.75
2023-04-15T02:11:53.187Z,18.85
2023-04-15T02:14:20.387Z,20.92
2023-04-15T02:16:47.420Z,23.90
2023-04-15T02:19:15.585Z,23.27
2023-04-15T02:21:42.665Z,27.50
2023-04-15T02:24:09.717Z,25.98
2023-04-15T02:26:37.042Z,23.98
2023-04-15T02:29:04.285Z,29.85
2023-04-15T02:31:34.277Z,28.77
2023-04-15T02:34:04.524Z,33.78
2023-04-15T02:36:32.119Z,28.67
2023-04-15T02:38:59.615Z,25.27
2023-04-15T02:41:28.671Z,20.75
2023-04-15T02:43:56.004Z,20.98
2023-04-15T02:46:23.356Z,20.45
2023-04-15T02:48:50.786Z,18.70
2023-04-15T02:51:23.977Z,17.33
2023-04-15T02:53:51.183Z,16.42
2023-04-15T02:56:19.615Z,16.25
2023-04-15T02:58:46.860Z,17.40
2023-04-15T03:01:14.136Z,18.05
2023-04-15T03:03:41.630Z,16.23
2023-04-15T03:06:09.256Z,15.07
2023-04-15T03:08:36.792Z,15.15
2023-04-15T03:11:04.275Z,13.90
2023-04-15T03:13:31.479Z,16.10
2023-04-15T03:15:58.707Z,16.15
2023-04-15T03:18:26.055Z,25.52
2023-04-15T03:20:53.271Z,18.55
2023-04-15T03:23:20.265Z,20.48
2023-04-15T03:25:47.401Z,18.50
2023-04-15T03:28:14.570Z,23.05
2023-04-15T03:30:41.984Z,20.20
2023-04-15T03:33:09.274Z,21.90
2023-04-15T03:35:36.445Z,19.40
2023-04-15T03:38:03.445Z,20.65
2023-04-15T03:40:30.672Z,22.70
2023-04-15T03:42:57.726Z,22.77
2023-04-15T03:45:24.892Z,23.38
2023-04-15T03:47:52.025Z,40.30
2023-04-15T03:50:19.192Z,39.83
2023-04-15T03:52:46.749Z,41.17
2023-04-15T03:55:14.671Z,46.45
2023-04-15T03:57:42.080Z,31.33
2023-04-15T04:00:10.718Z,32.60
2023-04-15T04:02:40.964Z,43.97
2023-04-15T04:05:09.822Z,51.22
2023-04-15T04:07:36.984Z,44.05
2023-04-15T04:10:04.479Z,43.10
2023-04-15T04:12:31.829Z,48.10
2023-04-15T04:14:58.914Z,35.40
2023-04-15T04:17:25.987Z,33.85
2023-04-15T04:19:54.123Z,35.05
2023-04-15T04:22:26.649Z,34.22
2023-04-15T04:24:53.785Z,18.27
2023-04-15T04:27:21.037Z,23.08
2023-04-15T04:29:50.072Z,19.33
2023-04-15T04:32:17.230Z,31.90
2023-04-15T04:34:44.503Z,27.58
2023-04-15T04:37:12.203Z,28.70
2023-04-15T04:39:42.388Z,32.53
2023-04-15T04:42:09.532Z,27.15
2023-04-15T04:44:36.689Z,41.00
2023-04-15T04:47:03.760Z,41.40
2023-04-15T04:49:31.295Z,32.10
2023-04-15T04:51:58.587Z,36.55
2023-04-15T04:54:26.655Z,35.55
2023-04-15T04:56:53.866Z,34.42
2023-04-15T04:59:20.967Z,35.80
2023-04-15T05:01:48.310Z,39.35
2023-04-15T05:04:15.924Z,29.90
2023-04-15T05:06:43.148Z,34.75
2023-04-15T05:09:10.331Z,32.50
2023-04-15T05:11:37.828Z,31.10
2023-04-15T05:14:06.214Z,22.85
2023-04-15T05:16:33.226Z,23.52
2023-04-15T05:19:00.619Z,26.63
2023-04-15T05:21:27.952Z,24.52
2023-04-15T05:23:55.102Z,33.72
2023-04-15T05:26:22.702Z,29.35
2023-04-15T05:28:51.090Z,32.78
2023-04-15T05:31:18.405Z,30.60
2023-04-15T05:33:47.259Z,28.83
2023-04-15T05:36:14.486Z,28.90
2023-04-15T05:38:42.314Z,27.60
2023-04-15T05:41:09.789Z,27.20
2023-04-15T05:43:37.416Z,33.72
2023-04-15T05:46:04.715Z,22.80
2023-04-15T05:48:32.076Z,22.23
2023-04-15T05:50:59.555Z,23.42
2023-04-15T05:53:26.889Z,23.52
2023-04-15T05:55:54.001Z,25.77
2023-04-15T05:58:21.271Z,22.35
2023-04-15T06:00:48.928Z,24.52
2023-04-15T06:03:17.043Z,22.73
2023-04-15T06:05:45.712Z,21.27
2023-04-15T06:08:13.472Z,25.02
2023-04-15T06:10:43.731Z,27.77
2023-04-15T06:13:11.520Z,24.23
2023-04-15T06:15:38.793Z,25.15
2023-04-15T06:18:07.116Z,24.67
2023-04-15T06:20:34.680Z,25.10
2023-04-15T06:23:01.937Z,19.38
2023-04-15T06:25:32.437Z,17.98
2023-04-15T06:28:00.951Z,20.05
2023-04-15T06:30:30.542Z,39.47
2023-04-15T06:32:58.263Z,29.92
2023-04-15T06:35:29.342Z,29.77
2023-04-15T06:37:58.592Z,22.65
2023-04-15T06:40:26.397Z,16.10
2023-04-15T06:42:53.671Z,22.48
2023-04-15T06:45:20.776Z,17.33
2023-04-15T06:47:51.788Z,23.65
2023-04-15T06:50:22.744Z,18.00
2023-04-15T06:52:50.476Z,17.42
2023-04-15T06:55:18.108Z,16.52
2023-04-15T07:00:29.386Z,19.27
2023-04-15T07:03:00.821Z,15.85
2023-04-15T07:05:29.926Z,16.98
2023-04-15T07:07:58.219Z,15.15
2023-04-15T07:10:26.253Z,12.63
2023-04-15T07:12:57.565Z,13.73
2023-04-15T07:15:25.429Z,14.93
2023-04-15T07:17:55.644Z,11.18
2023-04-15T07:20:24.308Z,14.15
2023-04-15T07:33:50.068Z,10.02
2023-04-15T07:36:20.332Z,11.35
2023-04-15T07:38:48.479Z,9.70
2023-04-15T07:41:16.421Z,9.45
2023-04-15T07:43:43.853Z,9.77
2023-04-15T07:46:11.348Z,12.50
2023-04-15T07:48:38.561Z,9.55
2023-04-15T07:51:06.268Z,9.23
2023-04-15T07:53:33.833Z,15.30
2023-04-15T07:56:00.894Z,11.05
2023-04-15T07:58:28.257Z,14.95
2023-04-15T08:00:55.422Z,11.52
2023-04-15T08:03:23.917Z,11.57
2023-04-15T08:05:51.465Z,9.52
2023-04-15T08:08:20.404Z,9.73
2023-04-15T08:19:10.826Z,8.07
2023-04-15T08:21:42.946Z,9.95
2023-04-15T08:24:21.847Z,11.57
2023-04-15T09:03:24.120Z,7.30
2023-04-15T09:11:27.389Z,3.80
2023-04-15T09:13:58.375Z,3.97
2023-04-15T09:19:34.227Z,4.05
2023-04-15T09:22:05.643Z,5.93
2023-04-15T09:24:40.551Z,6.07
2023-04-15T09:27:11.360Z,7.10
2023-04-15T09:29:39.587Z,4.88
2023-04-15T09:34:58.657Z,6.28
2023-04-15T09:37:44.076Z,4.53
2023-04-15T09:48:22.433Z,3.60
2023-04-15T09:53:39.677Z,3.63
2023-04-15T09:56:27.359Z,3.28
2023-04-15T09:59:03.084Z,3.58
2023-04-15T10:15:24.048Z,8.98
2023-04-15T10:17:57.271Z,6.97
2023-04-15T10:25:59.545Z,6.05
2023-04-15T10:28:28.224Z,4.93
2023-04-15T10:30:55.921Z,6.15
2023-04-15T10:33:26.031Z,4.53
2023-04-15T10:35:56.981Z,4.57
2023-04-15T10:38:45.828Z,2.95
2023-04-15T10:41:33.999Z,4.13
2023-04-15T10:46:46.204Z,5.15
2023-04-15T10:49:43.031Z,3.90
2023-04-15T10:52:12.341Z,2.38
2023-04-15T10:54:51.806Z,4.15
2023-04-15T11:00:10.210Z,5.82
2023-04-15T11:05:40.478Z,6.10
2023-04-15T11:08:18.605Z,4.70
2023-04-15T11:10:46.492Z,5.72
2023-04-15T11:13:23.167Z,4.63
2023-04-15T11:15:53.028Z,3.63
2023-04-15T11:18:40.524Z,7.63
2023-04-15T11:33:10.517Z,5.20
2023-04-15T11:35:39.336Z,11.25
2023-04-15T11:38:10.637Z,6.28
2023-04-15T11:40:41.154Z,5.07
2023-04-15T11:43:22.492Z,9.25
2023-04-15T11:45:58.821Z,5.95
2023-04-15T11:51:35.201Z,7.47
2023-04-15T11:54:02.995Z,5.95
2023-04-15T12:05:07.517Z,5.55
2023-04-15T12:10:27.500Z,5.45
2023-04-15T12:12:57.324Z,4.85
2023-04-15T12:21:23.195Z,2.35
2023-04-15T12:23:59.829Z,7.50
2023-04-15T12:26:29.876Z,5.15
2023-04-15T12:29:12.005Z,5.00
2023-04-15T12:31:49.793Z,6.22
2023-04-15T12:34:20.257Z,3.05
2023-04-15T12:36:49.440Z,4.25
2023-04-15T12:39:25.652Z,5.80
2023-04-15T12:58:30.480Z,5.70
2023-04-15T13:00:57.873Z,8.07
2023-04-15T13:03:40.840Z,10.52
2023-04-15T13:06:10.794Z,6.90
2023-04-15T13:14:48.489Z,5.68
2023-04-15T13:20:41.401Z,6.07
2023-04-15T13:50:26.856Z,6.82
2023-04-15T13:53:01.007Z,5.90
2023-04-15T13:55:31.829Z,8.57
2023-04-15T13:58:01.348Z,5.60
2023-04-15T14:00:31.330Z,6.63
2023-04-15T14:02:59.162Z,4.57
2023-04-15T14:05:35.687Z,6.43
2023-04-15T14:08:05.081Z,4.50
2023-04-15T14:10:35.692Z,3.63
2023-04-15T14:15:47.747Z,7.90
2023-04-15T14:18:37.623Z,4.20
2023-04-15T14:21:42.756Z,5.78
2023-04-15T14:24:27.575Z,6.53
2023-04-15T14:27:01.533Z,9.60
2023-04-15T14:29:41.353Z,5.22
2023-04-15T14:32:12.653Z,4.47
2023-04-15T14:34:45.788Z,6.28
2023-04-15T14:37:15.460Z,4.25
2023-04-15T14:39:42.616Z,5.63
2023-04-15T14:42:12.192Z,5.45
2023-04-15T14:44:39.518Z,5.80
2023-04-15T14:47:06.785Z,5.00
2023-04-15T14:49:34.191Z,4.75
2023-04-15T14:52:06.171Z,5.03
2023-04-15T14:54:33.704Z,4.88
2023-04-15T14:57:02.323Z,5.68
2023-04-15T14:59:29.913Z,6.15
2023-04-15T15:01:58.767Z,7.35
2023-04-15T15:04:34.030Z,5.85
2023-04-15T15:07:02.568Z,6.07
2023-04-15T15:09:36.320Z,5.68
2023-04-15T15:12:05.470Z,9.52
2023-04-15T15:14:35.554Z,9.77
2023-04-15T15:17:23.916Z,5.85
2023-04-15T15:19:51.458Z,8.90
2023-04-15T15:23:08.086Z,8.93
2023-04-15T15:29:18.546Z,11.30
2023-04-15T15:37:49.959Z,7.53
2023-04-15T15:40:17.283Z,5.88
2023-04-15T15:56:45.064Z,5.43
2023-04-15T15:59:13.071Z,8.68
2023-04-15T16:01:52.208Z,10.05
2023-04-15T16:04:22.135Z,11.02
2023-04-15T16:06:49.851Z,9.55
2023-04-15T16:12:14.698Z,7.25
2023-04-15T16:14:55.331Z,8.75
2023-04-15T16:17:27.025Z,6.35
2023-04-15T16:19:57.682Z,7.18
2023-04-15T16:22:41.567Z,8.48
2023-04-15T16:25:19.174Z,8.80
2023-04-15T16:27:58.827Z,10.25
2023-04-15T16:33:14.001Z,6.07
2023-04-15T16:35:47.292Z,10.23
2023-04-15T16:38:18.421Z,10.80
2023-04-15T16:46:12.115Z,16.10
2023-04-15T16:48:41.225Z,14.07
2023-04-15T16:51:08.874Z,16.83
2023-04-15T16:56:22.932Z,17.92
2023-04-15T16:58:54.773Z,19.20
2023-04-15T17:01:24.097Z,21.65
2023-04-15T17:03:54.688Z,23.30
2023-04-15T17:45:39.934Z,144.07
2023-04-15T17:48:07.335Z,142.48
2023-04-15T17:50:39.320Z,90.57
2023-04-15T17:53:11.451Z,77.25
2023-04-15T17:55:45.644Z,72.45
2023-04-15T17:58:15.322Z,87.72
2023-04-15T18:00:47.136Z,94.07
2023-04-15T18:03:15.236Z,88.35
2023-04-15T18:05:45.516Z,90.55
2023-04-15T18:08:20.640Z,95.15
2023-04-15T18:10:48.287Z,88.15
2023-04-15T18:13:23.046Z,85.82
2023-04-15T18:15:51.516Z,83.70
2023-04-15T18:18:19.790Z,88.93
2023-04-15T18:20:50.287Z,101.05
2023-04-15T18:25:45.491Z,141.77
2023-04-15T18:28:12.698Z,142.73
2023-04-15T18:30:40.436Z,147.90
2023-04-15T18:33:09.939Z,160.10
2023-04-15T18:35:37.683Z,157.30
2023-04-15T18:38:14.546Z,150.85
2023-04-15T18:40:42.018Z,152.05
2023-04-15T18:43:11.917Z,157.63
2023-04-15T18:45:45.288Z,154.10
2023-04-15T18:48:16.096Z,133.70
2023-04-15T18:50:48.297Z,119.93
2023-04-15T18:53:25.778Z,117.72
2023-04-15T18:59:10.024Z,131.68
2023-04-15T19:04:21.026Z,135.82
2023-04-15T19:06:48.672Z,145.63
2023-04-15T19:09:17.617Z,153.25
2023-04-15T19:11:45.729Z,154.10
2023-04-15T19:14:14.863Z,148.35
2023-04-15T19:16:42.903Z,137.13
2023-04-15T19:19:16.399Z,124.57
2023-04-15T19:21:43.739Z,102.53
2023-04-15T19:24:13.588Z,106.45
2023-04-15T19:26:41.857Z,115.60
2023-04-15T19:29:11.559Z,119.72
2023-04-15T19:31:46.818Z,49.70
2023-04-15T19:34:25.897Z,40.22
2023-04-15T19:39:50.218Z,23.58
2023-04-15T19:42:23.383Z,18.70
2023-04-15T19:44:53.163Z,22.90
2023-04-15T19:47:20.618Z,28.63
2023-04-15T19:49:47.780Z,23.83
2023-04-15T19:52:15.489Z,22.48
2023-04-15T19:54:46.396Z,23.70
2023-04-15T19:57:24.521Z,19.80
2023-04-15T19:59:54.557Z,44.90
2023-04-15T20:02:27.172Z,48.30
2023-04-15T20:08:01.804Z,39.90
2023-04-15T20:10:32.774Z,36.10
2023-04-15T20:13:08.468Z,44.65
2023-04-15T20:15:40.304Z,37.58
2023-04-15T20:18:08.886Z,36.17
2023-04-15T20:20:36.593Z,28.55
2023-04-15T20:23:03.726Z,20.35
2023-04-15T20:25:31.213Z,15.32
2023-04-15T20:28:00.994Z,11.18
2023-04-15T20:30:29.564Z,23.35
2023-04-15T20:33:04.774Z,16.25
2023-04-15T20:35:34.231Z,20.55
2023-04-15T20:38:05.762Z,27.58
2023-04-15T20:40:46.933Z,40.28
2023-04-15T20:43:17.091Z,44.10
2023-04-15T20:45:51.667Z,40.42
2023-04-15T20:48:47.252Z,44.47
2023-04-15T20:51:15.427Z,42.17
2023-04-15T20:53:43.834Z,39.88
2023-04-15T20:56:11.559Z,41.78
2023-04-15T20:58:40.154Z,43.22
2023-04-15T21:01:14.332Z,37.00
2023-04-15T21:03:42.834Z,32.20
2023-04-15T21:06:31.746Z,39.13
2023-04-15T21:09:09.384Z,39.90
2023-04-15T21:14:19.259Z,41.03
2023-04-15T21:16:47.157Z,47.65
2023-04-15T21:19:15.333Z,39.53
2023-04-15T21:24:31.616Z,34.50
2023-04-15T21:26:59.705Z,45.88
2023-04-15T21:32:18.294Z,48.92
2023-04-15T21:34:50.398Z,47.10
2023-04-15T21:37:22.409Z,47.15
2023-04-15T21:39:50.422Z,45.28
2023-04-15T21:42:17.987Z,44.10
2023-04-15T21:44:47.401Z,42.00
2023-04-15T21:47:17.813Z,46.00
2023-04-15T21:49:46.653Z,40.97
2023-04-15T21:52:14.861Z,33.95
2023-04-15T21:54:46.512Z,38.00
2023-04-15T21:57:15.883Z,37.00
2023-04-15T21:59:43.670Z,36.42
2023-04-15T22:02:11.262Z,45.45
2023-04-15T22:04:38.835Z,40.20
2023-04-15T22:07:06.442Z,42.22
2023-04-15T22:09:41.359Z,48.15
2023-04-15T22:12:08.740Z,47.13
2023-04-15T22:14:37.681Z,50.38
2023-04-15T22:17:07.038Z,58.15
2023-04-15T22:19:34.874Z,61.47
2023-04-15T22:22:05.950Z,67.07
2023-04-15T22:24:42.727Z,43.67
2023-04-15T22:27:12.717Z,42.90
2023-04-15T22:29:40.741Z,38.60
2023-04-15T22:32:09.077Z,37.13
2023-04-15T22:34:40.091Z,39.65
2023-04-15T22:37:12.276Z,42.47
2023-04-15T22:39:39.738Z,45.25
2023-04-15T22:42:08.202Z,39.38
2023-04-15T22:44:36.006Z,40.38
2023-04-15T22:47:03.515Z,47.60
2023-04-15T22:49:31.331Z,43.65
2023-04-15T22:52:12.296Z,46.88
2023-04-15T23:00:20.796Z,51.30
2023-04-15T23:02:56.891Z,50.22
2023-04-15T23:05:27.671Z,40.95
2023-04-15T23:10:38.722Z,33.60
2023-04-15T23:13:07.213Z,31.85
2023-04-15T23:15:34.845Z,30.17
2023-04-15T23:18:12.171Z,28.48
2023-04-15T23:20:40.676Z,32.88
2023-04-15T23:23:09.598Z,36.42
2023-04-15T23:25:37.446Z,47.65
2023-04-15T23:28:06.995Z,53.67
2023-04-15T23:30:34.698Z,57.25
2023-04-15T23:33:02.248Z,55.08
2023-04-15T23:35:30.032Z,41.53
2023-04-15T23:38:00.472Z,60.15
2023-04-15T23:40:27.974Z,54.22
2023-04-15T23:42:55.122Z,45.83
2023-04-15T23:45:23.048Z,58.97
2023-04-15T23:47:51.112Z,58.53
2023-04-15T23:50:20.436Z,41.25
2023-04-15T23:52:47.916Z,30.55
2023-04-15T23:55:15.702Z,54.33
2023-04-15T23:57:43.827Z,47.10
